sensor_id;sensor_type;location;lat;lon;timestamp;P1;durP1;ratioP1;P2;durP2;ratioP2
14052;SDS011;7101;51.600;7.310;2023-07-09T00:00:11;9.23;;;6.28;;
14052;SDS011;7101;51.600;7.310;2023-07-09T00:02:40;8.35;;;5.63;;
14052;SDS011;7101;51.600;7.310;2023-07-09T00:05:09;7.97;;;5.78;;
14052;SDS011;7101;51.600;7.310;2023-07-09T00:07:39;8.32;;;6.28;;
14052;SDS011;7101;51.600;7.310;2023-07-09T00:10:14;8.48;;;6.25;;
14052;SDS011;7101;51.600;7.310;2023-07-09T00:12:42;9.40;;;5.75;;
14052;SDS011;7101;51.600;7.310;2023-07-09T00:15:10;7.53;;;5.72;;
14052;SDS011;7101;51.600;7.310;2023-07-09T00:17:38;7.13;;;5.68;;
14052;SDS011;7101;51.600;7.310;2023-07-09T00:20:06;9.68;;;5.70;;
14052;SDS011;7101;51.600;7.310;2023-07-09T00:22:39;12.75;;;6.15;;
14052;SDS011;7101;51.600;7.310;2023-07-09T00:25:09;8.98;;;5.78;;
14052;SDS011;7101;51.600;7.310;2023-07-09T00:27:43;10.32;;;6.57;;
14052;SDS011;7101;51.600;7.310;2023-07-09T00:30:14;8.15;;;6.35;;
14052;SDS011;7101;51.600;7.310;2023-07-09T00:32:43;9.00;;;5.90;;
14052;SDS011;7101;51.600;7.310;2023-07-09T00:35:10;8.63;;;6.20;;
14052;SDS011;7101;51.600;7.310;2023-07-09T00:37:40;8.20;;;6.30;;
14052;SDS011;7101;51.600;7.310;2023-07-09T00:40:10;9.25;;;6.57;;
14052;SDS011;7101;51.600;7.310;2023-07-09T00:42:44;7.07;;;5.70;;
14052;SDS011;7101;51.600;7.310;2023-07-09T00:45:22;10.00;;;5.95;;
14052;SDS011;7101;51.600;7.310;2023-07-09T00:47:52;8.52;;;6.30;;
14052;SDS011;7101;51.600;7.310;2023-07-09T00:50:26;9.65;;;6.32;;
14052;SDS011;7101;51.600;7.310;2023-07-09T00:53:01;8.63;;;6.03;;
14052;SDS011;7101;51.600;7.310;2023-07-09T00:55:33;10.85;;;6.22;;
14052;SDS011;7101;51.600;7.310;2023-07-09T00:58:07;8.93;;;5.82;;
14052;SDS011;7101;51.600;7.310;2023-07-09T01:00:39;11.32;;;6.55;;
14052;SDS011;7101;51.600;7.310;2023-07-09T01:03:13;8.23;;;6.38;;
14052;SDS011;7101;51.600;7.310;2023-07-09T01:05:46;7.97;;;5.68;;
14052;SDS011;7101;51.600;7.310;2023-07-09T01:08:17;8.43;;;6.00;;
14052;SDS011;7101;51.600;7.310;2023-07-09T01:10:45;9.90;;;6.10;;
14052;SDS011;7101;51.600;7.310;2023-07-09T01:13:14;8.70;;;6.20;;
14052;SDS011;7101;51.600;7.310;2023-07-09T01:15:43;7.43;;;5.80;;
14052;SDS011;7101;51.600;7.310;2023-07-09T01:18:11;9.23;;;6.03;;
14052;SDS011;7101;51.600;7.310;2023-07-09T01:20:40;8.07;;;5.95;;
14052;SDS011;7101;51.600;7.310;2023-07-09T01:23:08;10.20;;;6.15;;
14052;SDS011;7101;51.600;7.310;2023-07-09T01:25:37;9.20;;;6.68;;
14052;SDS011;7101;51.600;7.310;2023-07-09T01:28:08;10.55;;;6.53;;
14052;SDS011;7101;51.600;7.310;2023-07-09T01:30:36;10.07;;;6.07;;
14052;SDS011;7101;51.600;7.310;2023-07-09T01:33:07;7.82;;;6.47;;
14052;SDS011;7101;51.600;7.310;2023-07-09T01:35:35;9.75;;;6.40;;
14052;SDS011;7101;51.600;7.310;2023-07-09T01:38:06;8.40;;;5.88;;
14052;SDS011;7101;51.600;7.310;2023-07-09T01:40:35;9.85;;;6.40;;
14052;SDS011;7101;51.600;7.310;2023-07-09T01:43:02;7.78;;;5.72;;
14052;SDS011;7101;51.600;7.310;2023-07-09T01:45:32;10.18;;;5.82;;
14052;SDS011;7101;51.600;7.310;2023-07-09T01:48:00;9.43;;;6.57;;
14052;SDS011;7101;51.600;7.310;2023-07-09T01:50:28;7.78;;;5.85;;
14052;SDS011;7101;51.600;7.310;2023-07-09T01:52:57;8.65;;;6.20;;
14052;SDS011;7101;51.600;7.310;2023-07-09T01:55:25;8.93;;;6.00;;
14052;SDS011;7101;51.600;7.310;2023-07-09T01:57:54;9.27;;;6.22;;
14052;SDS011;7101;51.600;7.310;2023-07-09T02:00:21;10.52;;;6.38;;
14052;SDS011;7101;51.600;7.310;2023-07-09T02:02:51;11.45;;;6.40;;
14052;SDS011;7101;51.600;7.310;2023-07-09T02:05:19;11.93;;;6.22;;
14052;SDS011;7101;51.600;7.310;2023-07-09T02:07:46;9.82;;;6.43;;
14052;SDS011;7101;51.600;7.310;2023-07-09T02:10:14;7.30;;;5.97;;
14052;SDS011;7101;51.600;7.310;2023-07-09T02:12:42;7.38;;;6.50;;
14052;SDS011;7101;51.600;7.310;2023-07-09T02:15:11;8.63;;;6.20;;
14052;SDS011;7101;51.600;7.310;2023-07-09T02:17:38;10.10;;;6.43;;
14052;SDS011;7101;51.600;7.310;2023-07-09T02:20:06;9.02;;;6.68;;
14052;SDS011;7101;51.600;7.310;2023-07-09T02:22:34;9.45;;;6.22;;
14052;SDS011;7101;51.600;7.310;2023-07-09T02:25:02;7.05;;;5.93;;
14052;SDS011;7101;51.600;7.310;2023-07-09T02:27:30;10.63;;;6.63;;
14052;SDS011;7101;51.600;7.310;2023-07-09T02:29:58;8.05;;;6.68;;
14052;SDS011;7101;51.600;7.310;2023-07-09T02:32:27;10.02;;;6.30;;
14052;SDS011;7101;51.600;7.310;2023-07-09T02:34:54;10.35;;;6.70;;
14052;SDS011;7101;51.600;7.310;2023-07-09T02:37:22;10.05;;;6.95;;
14052;SDS011;7101;51.600;7.310;2023-07-09T02:39:50;10.73;;;6.38;;
14052;SDS011;7101;51.600;7.310;2023-07-09T02:42:18;11.93;;;6.93;;
14052;SDS011;7101;51.600;7.310;2023-07-09T02:44:46;10.27;;;7.13;;
14052;SDS011;7101;51.600;7.310;2023-07-09T02:47:13;9.52;;;7.05;;
14052;SDS011;7101;51.600;7.310;2023-07-09T02:49:42;10.32;;;7.60;;
14052;SDS011;7101;51.600;7.310;2023-07-09T02:52:09;9.55;;;6.80;;
14052;SDS011;7101;51.600;7.310;2023-07-09T02:54:36;16.52;;;7.25;;
14052;SDS011;7101;51.600;7.310;2023-07-09T02:57:03;10.27;;;6.63;;
14052;SDS011;7101;51.600;7.310;2023-07-09T02:59:32;8.60;;;6.30;;
14052;SDS011;7101;51.600;7.310;2023-07-09T03:01:59;11.13;;;6.90;;
14052;SDS011;7101;51.600;7.310;2023-07-09T03:04:26;8.73;;;7.10;;
14052;SDS011;7101;51.600;7.310;2023-07-09T03:06:54;9.68;;;7.38;;
14052;SDS011;7101;51.600;7.310;2023-07-09T03:09:21;9.27;;;7.10;;
14052;SDS011;7101;51.600;7.310;2023-07-09T03:11:48;8.88;;;7.30;;
14052;SDS011;7101;51.600;7.310;2023-07-09T03:14:15;10.70;;;7.57;;
14052;SDS011;7101;51.600;7.310;2023-07-09T03:16:42;9.80;;;7.28;;
14052;SDS011;7101;51.600;7.310;2023-07-09T03:19:09;9.73;;;7.22;;
14052;SDS011;7101;51.600;7.310;2023-07-09T03:21:36;11.48;;;7.00;;
14052;SDS011;7101;51.600;7.310;2023-07-09T03:24:06;9.95;;;7.00;;
14052;SDS011;7101;51.600;7.310;2023-07-09T03:26:33;10.15;;;7.38;;
14052;SDS011;7101;51.600;7.310;2023-07-09T03:29:00;9.68;;;7.13;;
14052;SDS011;7101;51.600;7.310;2023-07-09T03:31:29;8.93;;;7.20;;
14052;SDS011;7101;51.600;7.310;2023-07-09T03:34:00;10.60;;;7.30;;
14052;SDS011;7101;51.600;7.310;2023-07-09T03:36:27;9.18;;;6.75;;
14052;SDS011;7101;51.600;7.310;2023-07-09T03:38:54;11.00;;;8.02;;
14052;SDS011;7101;51.600;7.310;2023-07-09T03:41:22;9.07;;;7.45;;
14052;SDS011;7101;51.600;7.310;2023-07-09T03:43:50;11.13;;;7.75;;
14052;SDS011;7101;51.600;7.310;2023-07-09T03:46:18;10.45;;;7.90;;
14052;SDS011;7101;51.600;7.310;2023-07-09T03:48:45;9.38;;;7.70;;
14052;SDS011;7101;51.600;7.310;2023-07-09T03:51:12;8.25;;;6.70;;
14052;SDS011;7101;51.600;7.310;2023-07-09T03:53:39;10.23;;;7.47;;
14052;SDS011;7101;51.600;7.310;2023-07-09T03:56:06;13.32;;;8.07;;
14052;SDS011;7101;51.600;7.310;2023-07-09T03:58:35;13.98;;;8.23;;
14052;SDS011;7101;51.600;7.310;2023-07-09T04:01:02;9.77;;;7.40;;
14052;SDS011;7101;51.600;7.310;2023-07-09T04:03:30;8.70;;;7.18;;
14052;SDS011;7101;51.600;7.310;2023-07-09T04:05:57;9.38;;;7.32;;
14052;SDS011;7101;51.600;7.310;2023-07-09T04:08:24;9.88;;;7.07;;
14052;SDS011;7101;51.600;7.310;2023-07-09T04:10:52;9.38;;;7.28;;
14052;SDS011;7101;51.600;7.310;2023-07-09T04:13:21;11.23;;;7.32;;
14052;SDS011;7101;51.600;7.310;2023-07-09T04:15:50;9.07;;;7.13;;
14052;SDS011;7101;51.600;7.310;2023-07-09T04:18:16;10.48;;;7.28;;
14052;SDS011;7101;51.600;7.310;2023-07-09T04:20:44;10.30;;;7.05;;
14052;SDS011;7101;51.600;7.310;2023-07-09T04:23:14;10.15;;;6.82;;
14052;SDS011;7101;51.600;7.310;2023-07-09T04:25:41;9.95;;;6.22;;
14052;SDS011;7101;51.600;7.310;2023-07-09T04:28:07;9.88;;;7.00;;
14052;SDS011;7101;51.600;7.310;2023-07-09T04:30:35;9.45;;;6.68;;
14052;SDS011;7101;51.600;7.310;2023-07-09T04:33:04;10.02;;;6.80;;
14052;SDS011;7101;51.600;7.310;2023-07-09T04:35:31;9.05;;;6.20;;
14052;SDS011;7101;51.600;7.310;2023-07-09T04:37:58;8.63;;;6.43;;
14052;SDS011;7101;51.600;7.310;2023-07-09T04:40:25;9.65;;;6.70;;
14052;SDS011;7101;51.600;7.310;2023-07-09T04:42:52;9.40;;;6.88;;
14052;SDS011;7101;51.600;7.310;2023-07-09T04:45:19;11.00;;;6.97;;
14052;SDS011;7101;51.600;7.310;2023-07-09T04:47:46;8.07;;;6.30;;
14052;SDS011;7101;51.600;7.310;2023-07-09T04:50:14;8.93;;;6.70;;
14052;SDS011;7101;51.600;7.310;2023-07-09T04:52:41;10.15;;;7.03;;
14052;SDS011;7101;51.600;7.310;2023-07-09T04:55:08;7.80;;;5.80;;
14052;SDS011;7101;51.600;7.310;2023-07-09T04:57:35;10.18;;;6.65;;
14052;SDS011;7101;51.600;7.310;2023-07-09T05:00:03;8.98;;;5.72;;
14052;SDS011;7101;51.600;7.310;2023-07-09T05:02:30;8.80;;;6.20;;
14052;SDS011;7101;51.600;7.310;2023-07-09T05:04:57;7.72;;;6.18;;
14052;SDS011;7101;51.600;7.310;2023-07-09T05:07:26;8.93;;;5.88;;
14052;SDS011;7101;51.600;7.310;2023-07-09T05:09:53;9.48;;;5.85;;
14052;SDS011;7101;51.600;7.310;2023-07-09T05:12:19;10.50;;;6.28;;
14052;SDS011;7101;51.600;7.310;2023-07-09T05:14:46;9.45;;;5.72;;
14052;SDS011;7101;51.600;7.310;2023-07-09T05:17:13;8.32;;;5.45;;
14052;SDS011;7101;51.600;7.310;2023-07-09T05:19:40;8.13;;;6.03;;
14052;SDS011;7101;51.600;7.310;2023-07-09T05:22:07;9.23;;;5.57;;
14052;SDS011;7101;51.600;7.310;2023-07-09T05:24:35;9.73;;;5.80;;
14052;SDS011;7101;51.600;7.310;2023-07-09T05:27:02;7.70;;;5.65;;
14052;SDS011;7101;51.600;7.310;2023-07-09T05:29:30;12.07;;;5.88;;
14052;SDS011;7101;51.600;7.310;2023-07-09T05:31:59;8.90;;;5.70;;
14052;SDS011;7101;51.600;7.310;2023-07-09T05:34:26;7.90;;;5.32;;
14052;SDS011;7101;51.600;7.310;2023-07-09T05:36:54;9.05;;;5.00;;
14052;SDS011;7101;51.600;7.310;2023-07-09T05:39:21;7.25;;;5.38;;
14052;SDS011;7101;51.600;7.310;2023-07-09T05:41:49;10.15;;;5.30;;
14052;SDS011;7101;51.600;7.310;2023-07-09T05:44:16;6.85;;;5.20;;
14052;SDS011;7101;51.600;7.310;2023-07-09T05:46:43;6.40;;;4.80;;
14052;SDS011;7101;51.600;7.310;2023-07-09T05:49:10;5.93;;;4.63;;
14052;SDS011;7101;51.600;7.310;2023-07-09T05:51:37;7.20;;;5.40;;
14052;SDS011;7101;51.600;7.310;2023-07-09T05:54:04;5.95;;;4.93;;
14052;SDS011;7101;51.600;7.310;2023-07-09T05:56:31;6.28;;;4.80;;
14052;SDS011;7101;51.600;7.310;2023-07-09T05:58:59;9.13;;;4.95;;
14052;SDS011;7101;51.600;7.310;2023-07-09T06:01:26;7.30;;;4.82;;
14052;SDS011;7101;51.600;7.310;2023-07-09T06:03:53;6.25;;;4.78;;
14052;SDS011;7101;51.600;7.310;2023-07-09T06:06:21;6.47;;;4.57;;
14052;SDS011;7101;51.600;7.310;2023-07-09T06:08:48;10.00;;;5.00;;
14052;SDS011;7101;51.600;7.310;2023-07-09T06:11:16;7.68;;;5.30;;
14052;SDS011;7101;51.600;7.310;2023-07-09T06:13:43;7.35;;;4.72;;
14052;SDS011;7101;51.600;7.310;2023-07-09T06:16:13;8.00;;;5.30;;
14052;SDS011;7101;51.600;7.310;2023-07-09T06:18:40;5.90;;;4.60;;
14052;SDS011;7101;51.600;7.310;2023-07-09T06:21:07;8.02;;;4.63;;
14052;SDS011;7101;51.600;7.310;2023-07-09T06:23:36;8.13;;;5.03;;
14052;SDS011;7101;51.600;7.310;2023-07-09T06:26:03;7.85;;;5.10;;
14052;SDS011;7101;51.600;7.310;2023-07-09T06:28:30;6.95;;;4.70;;
14052;SDS011;7101;51.600;7.310;2023-07-09T06:30:57;8.10;;;4.68;;
14052;SDS011;7101;51.600;7.310;2023-07-09T06:33:26;7.07;;;4.78;;
14052;SDS011;7101;51.600;7.310;2023-07-09T06:35:55;8.75;;;4.47;;
14052;SDS011;7101;51.600;7.310;2023-07-09T06:38:23;5.70;;;4.38;;
14052;SDS011;7101;51.600;7.310;2023-07-09T06:40:50;9.40;;;4.85;;
14052;SDS011;7101;51.600;7.310;2023-07-09T06:43:17;7.43;;;4.70;;
14052;SDS011;7101;51.600;7.310;2023-07-09T06:45:48;6.25;;;4.78;;
14052;SDS011;7101;51.600;7.310;2023-07-09T06:48:16;6.47;;;4.63;;
14052;SDS011;7101;51.600;7.310;2023-07-09T06:50:44;8.48;;;5.13;;
14052;SDS011;7101;51.600;7.310;2023-07-09T06:53:11;6.03;;;4.85;;
14052;SDS011;7101;51.600;7.310;2023-07-09T06:55:38;14.88;;;4.70;;
14052;SDS011;7101;51.600;7.310;2023-07-09T06:58:05;6.15;;;4.55;;
14052;SDS011;7101;51.600;7.310;2023-07-09T07:00:33;6.97;;;4.80;;
14052;SDS011;7101;51.600;7.310;2023-07-09T07:03:01;8.38;;;4.78;;
14052;SDS011;7101;51.600;7.310;2023-07-09T07:05:28;8.02;;;4.93;;
14052;SDS011;7101;51.600;7.310;2023-07-09T07:07:57;8.27;;;4.60;;
14052;SDS011;7101;51.600;7.310;2023-07-09T07:10:25;5.00;;;4.13;;
14052;SDS011;7101;51.600;7.310;2023-07-09T07:12:53;6.47;;;4.60;;
14052;SDS011;7101;51.600;7.310;2023-07-09T07:15:20;8.48;;;4.63;;
14052;SDS011;7101;51.600;7.310;2023-07-09T07:17:47;6.38;;;4.28;;
14052;SDS011;7101;51.600;7.310;2023-07-09T07:20:15;6.93;;;4.95;;
14052;SDS011;7101;51.600;7.310;2023-07-09T07:22:42;8.73;;;5.20;;
14052;SDS011;7101;51.600;7.310;2023-07-09T07:25:11;7.45;;;4.18;;
14052;SDS011;7101;51.600;7.310;2023-07-09T07:27:38;9.48;;;4.50;;
14052;SDS011;7101;51.600;7.310;2023-07-09T07:30:08;7.13;;;4.50;;
14052;SDS011;7101;51.600;7.310;2023-07-09T07:34:47;11.32;;;5.10;;
14052;SDS011;7101;51.600;7.310;2023-07-09T07:37:14;6.60;;;4.90;;
14052;SDS011;7101;51.600;7.310;2023-07-09T07:39:41;7.47;;;4.75;;
14052;SDS011;7101;51.600;7.310;2023-07-09T07:42:08;10.35;;;5.45;;
14052;SDS011;7101;51.600;7.310;2023-07-09T07:44:35;6.75;;;4.38;;
14052;SDS011;7101;51.600;7.310;2023-07-09T07:47:03;12.02;;;5.10;;
14052;SDS011;7101;51.600;7.310;2023-07-09T07:49:30;6.72;;;4.82;;
14052;SDS011;7101;51.600;7.310;2023-07-09T07:51:58;9.90;;;5.10;;
14052;SDS011;7101;51.600;7.310;2023-07-09T07:54:28;7.15;;;5.10;;
14052;SDS011;7101;51.600;7.310;2023-07-09T07:56:56;6.72;;;4.75;;
14052;SDS011;7101;51.600;7.310;2023-07-09T07:59:23;6.32;;;4.60;;
14052;SDS011;7101;51.600;7.310;2023-07-09T08:01:50;6.25;;;4.72;;
14052;SDS011;7101;51.600;7.310;2023-07-09T08:04:17;7.25;;;5.00;;
14052;SDS011;7101;51.600;7.310;2023-07-09T08:06:44;5.30;;;4.40;;
14052;SDS011;7101;51.600;7.310;2023-07-09T08:09:12;7.18;;;4.50;;
14052;SDS011;7101;51.600;7.310;2023-07-09T08:11:39;7.35;;;5.03;;
14052;SDS011;7101;51.600;7.310;2023-07-09T08:14:06;6.88;;;5.07;;
14052;SDS011;7101;51.600;7.310;2023-07-09T08:16:33;13.38;;;5.22;;
14052;SDS011;7101;51.600;7.310;2023-07-09T08:19:00;8.30;;;4.70;;
14052;SDS011;7101;51.600;7.310;2023-07-09T08:21:27;5.93;;;4.82;;
14052;SDS011;7101;51.600;7.310;2023-07-09T08:23:55;9.48;;;4.88;;
14052;SDS011;7101;51.600;7.310;2023-07-09T08:26:23;10.48;;;5.05;;
14052;SDS011;7101;51.600;7.310;2023-07-09T08:28:50;6.25;;;4.82;;
14052;SDS011;7101;51.600;7.310;2023-07-09T08:31:17;8.20;;;4.88;;
14052;SDS011;7101;51.600;7.310;2023-07-09T08:33:44;8.05;;;5.35;;
14052;SDS011;7101;51.600;7.310;2023-07-09T08:36:11;8.60;;;4.95;;
14052;SDS011;7101;51.600;7.310;2023-07-09T08:38:38;8.30;;;5.18;;
14052;SDS011;7101;51.600;7.310;2023-07-09T08:41:07;7.15;;;5.05;;
14052;SDS011;7101;51.600;7.310;2023-07-09T08:43:46;12.32;;;5.47;;
14052;SDS011;7101;51.600;7.310;2023-07-09T08:46:20;8.88;;;5.07;;
14052;SDS011;7101;51.600;7.310;2023-07-09T08:48:56;7.28;;;4.82;;
14052;SDS011;7101;51.600;7.310;2023-07-09T08:51:25;8.57;;;5.30;;
14052;SDS011;7101;51.600;7.310;2023-07-09T08:53:59;7.13;;;5.05;;
14052;SDS011;7101;51.600;7.310;2023-07-09T08:56:28;9.30;;;5.50;;
14052;SDS011;7101;51.600;7.310;2023-07-09T08:59:00;8.52;;;5.38;;
14052;SDS011;7101;51.600;7.310;2023-07-09T09:01:35;6.95;;;4.90;;
14052;SDS011;7101;51.600;7.310;2023-07-09T09:04:12;7.50;;;5.18;;
14052;SDS011;7101;51.600;7.310;2023-07-09T09:06:44;9.55;;;5.43;;
14052;SDS011;7101;51.600;7.310;2023-07-09T09:09:18;7.90;;;5.03;;
14052;SDS011;7101;51.600;7.310;2023-07-09T09:11:53;6.72;;;4.97;;
14052;SDS011;7101;51.600;7.310;2023-07-09T09:14:28;10.77;;;5.68;;
14052;SDS011;7101;51.600;7.310;2023-07-09T09:16:57;7.65;;;5.18;;
14052;SDS011;7101;51.600;7.310;2023-07-09T09:19:27;8.55;;;5.30;;
14052;SDS011;7101;51.600;7.310;2023-07-09T09:22:00;9.45;;;4.95;;
14052;SDS011;7101;51.600;7.310;2023-07-09T09:24:30;8.93;;;5.10;;
14052;SDS011;7101;51.600;7.310;2023-07-09T09:27:01;7.38;;;5.20;;
14052;SDS011;7101;51.600;7.310;2023-07-09T09:29:30;7.82;;;4.70;;
14052;SDS011;7101;51.600;7.310;2023-07-09T09:31:57;9.52;;;5.63;;
14052;SDS011;7101;51.600;7.310;2023-07-09T09:34:29;6.65;;;5.55;;
14052;SDS011;7101;51.600;7.310;2023-07-09T09:36:57;7.10;;;4.68;;
14052;SDS011;7101;51.600;7.310;2023-07-09T09:39:25;6.97;;;5.32;;
14052;SDS011;7101;51.600;7.310;2023-07-09T09:41:53;7.55;;;5.32;;
14052;SDS011;7101;51.600;7.310;2023-07-09T09:44:23;6.93;;;5.13;;
14052;SDS011;7101;51.600;7.310;2023-07-09T09:46:55;6.55;;;5.10;;
14052;SDS011;7101;51.600;7.310;2023-07-09T09:49:37;6.40;;;5.50;;
14052;SDS011;7101;51.600;7.310;2023-07-09T09:52:06;7.90;;;5.65;;
14052;SDS011;7101;51.600;7.310;2023-07-09T09:54:40;7.43;;;5.75;;
14052;SDS011;7101;51.600;7.310;2023-07-09T09:57:19;6.07;;;5.00;;
14052;SDS011;7101;51.600;7.310;2023-07-09T09:59:47;8.35;;;4.97;;
14052;SDS011;7101;51.600;7.310;2023-07-09T10:02:18;7.88;;;5.63;;
14052;SDS011;7101;51.600;7.310;2023-07-09T10:04:47;7.47;;;4.97;;
14052;SDS011;7101;51.600;7.310;2023-07-09T10:07:17;7.38;;;5.03;;
14052;SDS011;7101;51.600;7.310;2023-07-09T10:09:53;7.18;;;4.95;;
14052;SDS011;7101;51.600;7.310;2023-07-09T10:12:36;7.80;;;4.70;;
14052;SDS011;7101;51.600;7.310;2023-07-09T10:15:12;8.05;;;5.03;;
14052;SDS011;7101;51.600;7.310;2023-07-09T10:17:47;8.18;;;4.80;;
14052;SDS011;7101;51.600;7.310;2023-07-09T10:20:23;7.57;;;4.68;;
14052;SDS011;7101;51.600;7.310;2023-07-09T10:22:55;8.95;;;5.40;;
14052;SDS011;7101;51.600;7.310;2023-07-09T10:25:33;16.67;;;5.18;;
14052;SDS011;7101;51.600;7.310;2023-07-09T10:30:59;6.00;;;4.85;;
14052;SDS011;7101;51.600;7.310;2023-07-09T10:33:42;6.40;;;4.65;;
14052;SDS011;7101;51.600;7.310;2023-07-09T10:36:31;6.47;;;4.75;;
14052;SDS011;7101;51.600;7.310;2023-07-09T10:39:10;8.23;;;4.95;;
14052;SDS011;7101;51.600;7.310;2023-07-09T10:41:41;5.97;;;4.57;;
14052;SDS011;7101;51.600;7.310;2023-07-09T10:44:12;6.63;;;4.88;;
14052;SDS011;7101;51.600;7.310;2023-07-09T10:46:46;8.27;;;4.30;;
14052;SDS011;7101;51.600;7.310;2023-07-09T10:49:17;8.68;;;4.50;;
14052;SDS011;7101;51.600;7.310;2023-07-09T10:51:48;6.55;;;4.50;;
14052;SDS011;7101;51.600;7.310;2023-07-09T10:54:21;5.53;;;4.20;;
14052;SDS011;7101;51.600;7.310;2023-07-09T10:56:56;8.02;;;4.80;;
14052;SDS011;7101;51.600;7.310;2023-07-09T10:59:28;8.57;;;4.88;;
14052;SDS011;7101;51.600;7.310;2023-07-09T11:01:58;6.85;;;4.65;;
14052;SDS011;7101;51.600;7.310;2023-07-09T11:04:40;5.07;;;4.30;;
14052;SDS011;7101;51.600;7.310;2023-07-09T11:07:12;8.40;;;4.22;;
14052;SDS011;7101;51.600;7.310;2023-07-09T11:09:45;6.55;;;4.60;;
14052;SDS011;7101;51.600;7.310;2023-07-09T11:12:17;6.15;;;3.92;;
14052;SDS011;7101;51.600;7.310;2023-07-09T11:14:52;5.03;;;4.07;;
14052;SDS011;7101;51.600;7.310;2023-07-09T11:17:22;8.10;;;4.75;;
14052;SDS011;7101;51.600;7.310;2023-07-09T11:19:54;7.47;;;4.35;;
14052;SDS011;7101;51.600;7.310;2023-07-09T11:22:24;7.18;;;3.88;;
14052;SDS011;7101;51.600;7.310;2023-07-09T11:24:53;7.85;;;4.10;;
14052;SDS011;7101;51.600;7.310;2023-07-09T11:27:32;5.93;;;4.32;;
14052;SDS011;7101;51.600;7.310;2023-07-09T11:30:00;8.13;;;4.00;;
14052;SDS011;7101;51.600;7.310;2023-07-09T11:32:31;6.25;;;4.68;;
14052;SDS011;7101;51.600;7.310;2023-07-09T11:35:09;7.40;;;4.15;;
14052;SDS011;7101;51.600;7.310;2023-07-09T11:37:49;7.32;;;4.30;;
14052;SDS011;7101;51.600;7.310;2023-07-09T11:40:18;7.03;;;4.40;;
14052;SDS011;7101;51.600;7.310;2023-07-09T11:42:47;7.93;;;4.55;;
14052;SDS011;7101;51.600;7.310;2023-07-09T11:45:17;7.40;;;4.25;;
14052;SDS011;7101;51.600;7.310;2023-07-09T11:47:51;5.60;;;4.20;;
14052;SDS011;7101;51.600;7.310;2023-07-09T11:50:27;6.45;;;4.13;;
14052;SDS011;7101;51.600;7.310;2023-07-09T11:52:57;6.60;;;4.05;;
14052;SDS011;7101;51.600;7.310;2023-07-09T11:55:28;9.07;;;3.92;;
14052;SDS011;7101;51.600;7.310;2023-07-09T11:57:59;6.78;;;3.85;;
14052;SDS011;7101;51.600;7.310;2023-07-09T12:00:30;5.65;;;3.97;;
14052;SDS011;7101;51.600;7.310;2023-07-09T12:03:11;7.15;;;4.22;;
14052;SDS011;7101;51.600;7.310;2023-07-09T12:05:42;10.05;;;3.88;;
14052;SDS011;7101;51.600;7.310;2023-07-09T12:08:15;7.32;;;4.45;;
14052;SDS011;7101;51.600;7.310;2023-07-09T12:10:43;7.97;;;4.40;;
14052;SDS011;7101;51.600;7.310;2023-07-09T12:13:11;6.35;;;3.78;;
14052;SDS011;7101;51.600;7.310;2023-07-09T12:15:38;5.75;;;3.85;;
14052;SDS011;7101;51.600;7.310;2023-07-09T12:18:10;7.95;;;3.88;;
14052;SDS011;7101;51.600;7.310;2023-07-09T12:20:38;4.90;;;3.58;;
14052;SDS011;7101;51.600;7.310;2023-07-09T12:23:16;6.03;;;4.07;;
14052;SDS011;7101;51.600;7.310;2023-07-09T12:25:49;6.03;;;4.07;;
14052;SDS011;7101;51.600;7.310;2023-07-09T12:28:17;8.32;;;4.07;;
14052;SDS011;7101;51.600;7.310;2023-07-09T12:30:45;10.55;;;4.07;;
14052;SDS011;7101;51.600;7.310;2023-07-09T12:33:13;6.50;;;3.67;;
14052;SDS011;7101;51.600;7.310;2023-07-09T12:35:43;10.00;;;4.13;;
14052;SDS011;7101;51.600;7.310;2023-07-09T12:38:16;6.90;;;4.10;;
14052;SDS011;7101;51.600;7.310;2023-07-09T12:40:45;5.55;;;3.50;;
14052;SDS011;7101;51.600;7.310;2023-07-09T12:43:13;6.38;;;3.70;;
14052;SDS011;7101;51.600;7.310;2023-07-09T12:45:51;7.18;;;3.72;;
14052;SDS011;7101;51.600;7.310;2023-07-09T12:48:19;5.03;;;3.65;;
14052;SDS011;7101;51.600;7.310;2023-07-09T12:50:49;5.90;;;3.58;;
14052;SDS011;7101;51.600;7.310;2023-07-09T12:53:19;5.82;;;3.90;;
14052;SDS011;7101;51.600;7.310;2023-07-09T12:55:47;4.90;;;3.25;;
14052;SDS011;7101;51.600;7.310;2023-07-09T12:58:17;4.32;;;3.45;;
14052;SDS011;7101;51.600;7.310;2023-07-09T13:00:47;7.35;;;3.70;;
14052;SDS011;7101;51.600;7.310;2023-07-09T13:03:18;8.00;;;3.50;;
14052;SDS011;7101;51.600;7.310;2023-07-09T13:05:51;6.43;;;3.40;;
14052;SDS011;7101;51.600;7.310;2023-07-09T13:08:20;4.65;;;3.28;;
14052;SDS011;7101;51.600;7.310;2023-07-09T13:10:47;4.68;;;3.47;;
14052;SDS011;7101;51.600;7.310;2023-07-09T13:13:17;5.57;;;3.78;;
14052;SDS011;7101;51.600;7.310;2023-07-09T13:15:47;8.20;;;3.45;;
14052;SDS011;7101;51.600;7.310;2023-07-09T13:18:16;4.53;;;3.03;;
14052;SDS011;7101;51.600;7.310;2023-07-09T13:20:45;6.22;;;3.13;;
14052;SDS011;7101;51.600;7.310;2023-07-09T13:23:14;4.55;;;3.17;;
14052;SDS011;7101;51.600;7.310;2023-07-09T13:25:44;7.82;;;4.15;;
14052;SDS011;7101;51.600;7.310;2023-07-09T13:28:14;5.32;;;3.10;;
14052;SDS011;7101;51.600;7.310;2023-07-09T13:30:43;5.28;;;3.30;;
14052;SDS011;7101;51.600;7.310;2023-07-09T13:33:10;5.38;;;3.50;;
14052;SDS011;7101;51.600;7.310;2023-07-09T13:35:37;7.97;;;3.58;;
14052;SDS011;7101;51.600;7.310;2023-07-09T13:38:09;6.75;;;3.58;;
14052;SDS011;7101;51.600;7.310;2023-07-09T13:40:39;3.83;;;3.17;;
14052;SDS011;7101;51.600;7.310;2023-07-09T13:43:09;5.40;;;3.30;;
14052;SDS011;7101;51.600;7.310;2023-07-09T13:45:38;4.45;;;3.42;;
14052;SDS011;7101;51.600;7.310;2023-07-09T13:48:08;7.70;;;3.60;;
14052;SDS011;7101;51.600;7.310;2023-07-09T13:50:40;6.28;;;3.63;;
14052;SDS011;7101;51.600;7.310;2023-07-09T13:53:09;7.95;;;3.55;;
14052;SDS011;7101;51.600;7.310;2023-07-09T13:55:39;4.50;;;3.20;;
14052;SDS011;7101;51.600;7.310;2023-07-09T13:58:08;4.53;;;2.83;;
14052;SDS011;7101;51.600;7.310;2023-07-09T14:00:37;7.03;;;3.15;;
14052;SDS011;7101;51.600;7.310;2023-07-09T14:03:07;5.18;;;3.45;;
14052;SDS011;7101;51.600;7.310;2023-07-09T14:05:42;5.20;;;3.20;;
14052;SDS011;7101;51.600;7.310;2023-07-09T14:08:09;4.93;;;3.55;;
14052;SDS011;7101;51.600;7.310;2023-07-09T14:10:38;4.80;;;2.78;;
14052;SDS011;7101;51.600;7.310;2023-07-09T14:13:07;4.95;;;3.00;;
14052;SDS011;7101;51.600;7.310;2023-07-09T14:15:39;8.63;;;3.30;;
14052;SDS011;7101;51.600;7.310;2023-07-09T14:18:08;6.55;;;3.60;;
14052;SDS011;7101;51.600;7.310;2023-07-09T14:20:37;5.22;;;3.13;;
14052;SDS011;7101;51.600;7.310;2023-07-09T14:23:08;4.45;;;2.95;;
14052;SDS011;7101;51.600;7.310;2023-07-09T14:25:37;7.32;;;2.97;;
14052;SDS011;7101;51.600;7.310;2023-07-09T14:28:07;8.60;;;3.45;;
14052;SDS011;7101;51.600;7.310;2023-07-09T14:30:38;4.78;;;3.58;;
14052;SDS011;7101;51.600;7.310;2023-07-09T14:33:08;7.38;;;3.50;;
14052;SDS011;7101;51.600;7.310;2023-07-09T14:35:38;5.80;;;3.67;;
14052;SDS011;7101;51.600;7.310;2023-07-09T14:38:09;6.05;;;3.40;;
14052;SDS011;7101;51.600;7.310;2023-07-09T14:40:42;5.82;;;3.40;;
14052;SDS011;7101;51.600;7.310;2023-07-09T14:43:10;6.43;;;3.55;;
14052;SDS011;7101;51.600;7.310;2023-07-09T14:45:38;5.47;;;3.13;;
14052;SDS011;7101;51.600;7.310;2023-07-09T14:48:08;8.02;;;3.53;;
14052;SDS011;7101;51.600;7.310;2023-07-09T14:50:36;11.30;;;3.67;;
14052;SDS011;7101;51.600;7.310;2023-07-09T14:53:05;5.50;;;3.35;;
14052;SDS011;7101;51.600;7.310;2023-07-09T14:55:37;11.63;;;4.32;;
14052;SDS011;7101;51.600;7.310;2023-07-09T14:58:07;7.22;;;3.58;;
14052;SDS011;7101;51.600;7.310;2023-07-09T15:00:42;6.55;;;3.47;;
14052;SDS011;7101;51.600;7.310;2023-07-09T15:03:17;9.18;;;4.15;;
14052;SDS011;7101;51.600;7.310;2023-07-09T15:05:46;10.13;;;4.28;;
14052;SDS011;7101;51.600;7.310;2023-07-09T15:08:14;12.35;;;4.35;;
14052;SDS011;7101;51.600;7.310;2023-07-09T15:10:43;11.68;;;4.25;;
14052;SDS011;7101;51.600;7.310;2023-07-09T15:13:18;8.18;;;4.90;;
14052;SDS011;7101;51.600;7.310;2023-07-09T15:15:47;11.55;;;4.35;;